createdAt,value
2023-02-02T00:00:48.281Z,0.00
2023-02-02T00:01:48.289Z,0.00
2023-02-02T00:02:48.313Z,0.00
2023-02-02T00:03:48.265Z,0.00
2023-02-02T00:04:49.245Z,0.00
2023-02-02T00:05:48.220Z,0.00
2023-02-02T00:06:48.217Z,0.00
2023-02-02T00:07:48.227Z,0.00
2023-02-02T00:08:48.187Z,0.00
2023-02-02T00:09:49.212Z,0.00
2023-02-02T00:10:48.168Z,0.00
2023-02-02T00:11:49.187Z,0.00
2023-02-02T00:12:48.157Z,0.00
2023-02-02T00:13:48.169Z,0.00
2023-02-02T00:14:48.163Z,0.00
2023-02-02T00:15:48.127Z,0.00
2023-02-02T00:16:48.142Z,0.00
2023-02-02T00:17:48.119Z,0.00
2023-02-02T00:18:48.115Z,0.00
2023-02-02T00:19:48.105Z,0.00
2023-02-02T00:20:48.100Z,0.00
2023-02-02T00:21:48.059Z,0.00
2023-02-02T00:22:48.076Z,0.00
2023-02-02T00:23:48.064Z,0.00
2023-02-02T00:24:48.055Z,0.00
2023-02-02T00:25:49.059Z,0.00
2023-02-02T00:26:49.039Z,0.00
2023-02-02T00:27:48.006Z,0.00
2023-02-02T00:28:48.979Z,0.00
2023-02-02T00:29:47.961Z,0.00
2023-02-02T00:30:47.986Z,0.00
2023-02-02T00:31:48.047Z,0.00
2023-02-02T00:32:47.940Z,0.00
2023-02-02T00:33:47.933Z,0.00
2023-02-02T00:34:47.928Z,0.00
2023-02-02T00:35:49.451Z,0.00
2023-02-02T00:36:47.913Z,0.00
2023-02-02T00:37:47.922Z,0.00
2023-02-02T00:38:47.890Z,0.00
2023-02-02T00:39:47.865Z,0.00
2023-02-02T00:40:47.859Z,0.00
2023-02-02T00:41:47.850Z,0.00
2023-02-02T00:42:48.861Z,0.00
2023-02-02T00:43:47.873Z,0.00
2023-02-02T00:44:47.804Z,0.00
2023-02-02T00:45:47.822Z,0.00
2023-02-02T00:46:47.813Z,0.00
2023-02-02T00:47:47.794Z,0.00
2023-02-02T00:48:47.807Z,0.00
2023-02-02T00:49:47.788Z,0.00
2023-02-02T00:50:48.776Z,0.00
2023-02-02T00:51:47.785Z,0.00
2023-02-02T00:52:47.755Z,0.00
2023-02-02T00:53:47.730Z,0.00
2023-02-02T00:54:47.722Z,0.00
2023-02-02T00:55:48.703Z,0.00
2023-02-02T00:56:47.682Z,0.00
2023-02-02T00:57:47.754Z,0.00
2023-02-02T00:58:47.700Z,0.00
2023-02-02T00:59:47.651Z,0.00
2023-02-02T01:00:47.730Z,0.00
2023-02-02T01:01:47.685Z,0.00
2023-02-02T01:02:47.618Z,0.00
2023-02-02T01:03:47.658Z,0.00
2023-02-02T01:04:47.584Z,0.00
2023-02-02T01:05:47.591Z,0.00
2023-02-02T01:06:47.598Z,0.00
2023-02-02T01:07:48.566Z,0.00
2023-02-02T01:08:47.559Z,0.00
2023-02-02T01:09:47.587Z,0.00
2023-02-02T01:10:47.533Z,0.00
2023-02-02T01:11:47.529Z,0.00
2023-02-02T01:12:47.532Z,0.00
2023-02-02T01:13:47.507Z,0.00
2023-02-02T01:14:47.529Z,0.00
2023-02-02T01:15:47.489Z,0.00
2023-02-02T01:16:47.529Z,0.00
2023-02-02T01:17:47.462Z,0.00
2023-02-02T01:18:47.466Z,0.00
2023-02-02T01:19:48.473Z,0.00
2023-02-02T01:20:48.421Z,0.00
2023-02-02T01:21:48.485Z,0.00
2023-02-02T01:22:47.405Z,0.00
2023-02-02T01:23:47.429Z,0.00
2023-02-02T01:24:48.436Z,0.00
2023-02-02T01:25:47.376Z,0.00
2023-02-02T01:26:47.414Z,0.00
2023-02-02T01:27:48.345Z,0.00
2023-02-02T01:28:47.373Z,0.00
2023-02-02T01:29:47.341Z,0.00
2023-02-02T01:30:47.351Z,0.00
2023-02-02T01:31:47.341Z,0.00
2023-02-02T01:32:47.302Z,0.00
2023-02-02T01:33:47.299Z,0.00
2023-02-02T01:34:48.290Z,0.00
2023-02-02T01:35:47.292Z,0.00
2023-02-02T01:36:47.247Z,0.00
2023-02-02T01:37:47.257Z,0.00
2023-02-02T01:38:47.227Z,0.00
2023-02-02T01:39:47.240Z,0.00
2023-02-02T01:40:48.242Z,0.00
2023-02-02T01:41:47.233Z,0.00
2023-02-02T01:42:48.194Z,0.00
2023-02-02T01:43:47.172Z,0.00
2023-02-02T01:44:47.160Z,0.00
2023-02-02T01:45:48.200Z,0.00
2023-02-02T01:46:47.140Z,0.00
2023-02-02T01:47:47.246Z,0.00
2023-02-02T01:48:47.116Z,0.00
2023-02-02T01:49:47.122Z,0.00
2023-02-02T01:50:47.128Z,0.00
2023-02-02T01:51:47.133Z,0.00
2023-02-02T01:52:47.498Z,0.00
2023-02-02T01:53:47.099Z,0.00
2023-02-02T01:54:48.084Z,0.00
2023-02-02T01:55:47.054Z,0.00
2023-02-02T01:56:47.031Z,0.00
2023-02-02T01:57:47.015Z,0.00
2023-02-02T01:58:47.025Z,0.00
2023-02-02T01:59:47.025Z,0.00
2023-02-02T02:00:47.243Z,0.00
2023-02-02T02:01:46.989Z,0.00
2023-02-02T02:02:47.072Z,0.00
2023-02-02T02:03:46.975Z,0.00
2023-02-02T02:04:46.989Z,0.00
2023-02-02T02:05:47.080Z,0.00
2023-02-02T02:06:46.968Z,0.00
2023-02-02T02:07:46.945Z,0.00
2023-02-02T02:08:46.934Z,0.00
2023-02-02T02:09:46.921Z,0.00
2023-02-02T02:10:47.014Z,0.00
2023-02-02T02:11:46.890Z,0.00
2023-02-02T02:12:46.870Z,0.00
2023-02-02T02:13:46.862Z,0.00
2023-02-02T02:14:47.882Z,0.00
2023-02-02T02:15:46.826Z,0.00
2023-02-02T02:16:47.903Z,0.00
2023-02-02T02:17:46.849Z,0.00
2023-02-02T02:18:46.813Z,0.00
2023-02-02T02:19:47.824Z,0.00
2023-02-02T02:20:46.806Z,0.00
2023-02-02T02:21:47.784Z,0.00
2023-02-02T02:22:46.768Z,0.00
2023-02-02T02:23:46.759Z,0.00
2023-02-02T02:24:46.773Z,0.00
2023-02-02T02:25:46.798Z,0.00
2023-02-02T02:26:46.757Z,0.00
2023-02-02T02:27:46.728Z,0.00
2023-02-02T02:28:46.709Z,0.00
2023-02-02T02:29:46.706Z,0.00
2023-02-02T02:30:46.743Z,0.00
2023-02-02T02:31:46.799Z,0.00
2023-02-02T02:32:47.680Z,0.00
2023-02-02T02:33:46.662Z,0.00
2023-02-02T02:34:46.640Z,0.00
2023-02-02T02:35:47.648Z,0.00
2023-02-02T02:36:46.670Z,0.00
2023-02-02T02:37:46.607Z,0.00
2023-02-02T02:38:46.598Z,0.00
2023-02-02T02:39:46.625Z,0.00
2023-02-02T02:40:46.617Z,0.00
2023-02-02T02:41:47.603Z,0.00
2023-02-02T02:42:46.564Z,0.00
2023-02-02T02:43:47.572Z,0.00
2023-02-02T02:44:47.557Z,0.00
2023-02-02T02:45:46.524Z,0.00
2023-02-02T02:46:46.523Z,0.00
2023-02-02T02:47:46.513Z,0.00
2023-02-02T02:48:46.487Z,0.00
2023-02-02T02:49:46.499Z,0.00
2023-02-02T02:50:46.465Z,0.00
2023-02-02T02:51:46.447Z,0.00
2023-02-02T02:52:46.473Z,0.00
2023-02-02T02:53:46.476Z,0.00
2023-02-02T02:54:46.438Z,0.00
2023-02-02T02:55:47.419Z,0.00
2023-02-02T02:56:46.431Z,0.00
2023-02-02T02:57:46.408Z,0.00
2023-02-02T02:58:46.415Z,0.00
2023-02-02T02:59:46.355Z,0.00
2023-02-02T03:00:46.378Z,0.00
2023-02-02T03:01:46.424Z,0.00
2023-02-02T03:02:46.360Z,0.00
2023-02-02T03:03:46.325Z,0.00
2023-02-02T03:04:46.799Z,0.00
2023-02-02T03:05:46.341Z,0.00
2023-02-02T03:06:46.295Z,0.00
2023-02-02T03:07:47.284Z,0.00
2023-02-02T03:08:46.277Z,0.00
2023-02-02T03:09:46.290Z,0.00
2023-02-02T03:10:47.296Z,0.00
2023-02-02T03:11:46.250Z,0.00
2023-02-02T03:12:46.250Z,0.00
2023-02-02T03:13:46.236Z,0.00
2023-02-02T03:14:46.216Z,0.00
2023-02-02T03:15:46.225Z,0.00
2023-02-02T03:16:46.209Z,0.00
2023-02-02T03:17:46.215Z,0.00
2023-02-02T03:18:46.179Z,0.00
2023-02-02T03:19:47.146Z,0.00
2023-02-02T03:20:46.213Z,0.00
2023-02-02T03:21:46.176Z,0.00
2023-02-02T03:22:47.127Z,0.00
2023-02-02T03:23:47.146Z,0.00
2023-02-02T03:24:46.102Z,0.00
2023-02-02T03:25:47.096Z,0.00
2023-02-02T03:26:46.122Z,0.00
2023-02-02T03:27:46.097Z,0.00
2023-02-02T03:28:46.093Z,0.00
2023-02-02T03:29:46.113Z,0.00
2023-02-02T03:30:46.273Z,0.00
2023-02-02T03:31:46.101Z,0.00
2023-02-02T03:32:46.012Z,0.00
2023-02-02T03:33:47.031Z,0.00
2023-02-02T03:34:46.013Z,0.00
2023-02-02T03:35:45.993Z,0.00
2023-02-02T03:36:45.992Z,0.00
2023-02-02T03:37:45.978Z,0.00
2023-02-02T03:38:46.987Z,0.00
2023-02-02T03:39:46.978Z,0.00
2023-02-02T03:40:45.954Z,0.00
2023-02-02T03:41:46.926Z,0.00
2023-02-02T03:42:45.917Z,0.00
2023-02-02T03:43:45.916Z,0.00
2023-02-02T03:44:45.906Z,0.00
2023-02-02T03:45:45.890Z,0.00
2023-02-02T03:46:45.930Z,0.00
2023-02-02T03:47:45.864Z,0.00
2023-02-02T03:48:45.909Z,0.00
2023-02-02T03:49:45.824Z,0.00
2023-02-02T03:50:45.837Z,0.00
2023-02-02T03:51:45.828Z,0.00
2023-02-02T03:52:46.809Z,0.00
2023-02-02T03:53:46.857Z,0.00
2023-02-02T03:54:45.789Z,0.00
2023-02-02T03:55:45.768Z,0.00
2023-02-02T03:56:45.779Z,0.00
2023-02-02T03:57:45.758Z,0.00
2023-02-02T03:58:45.735Z,0.00
2023-02-02T03:59:45.750Z,0.00
2023-02-02T04:00:45.708Z,0.00
2023-02-02T04:01:45.736Z,0.00
2023-02-02T04:02:45.815Z,0.00
2023-02-02T04:03:45.703Z,0.00
2023-02-02T04:04:45.701Z,0.00
2023-02-02T04:05:45.667Z,0.00
2023-02-02T04:06:45.663Z,0.00
2023-02-02T04:07:45.635Z,0.00
2023-02-02T04:08:46.658Z,0.00
2023-02-02T04:09:45.626Z,0.00
2023-02-02T04:10:45.608Z,0.00
2023-02-02T04:11:45.627Z,0.00
2023-02-02T04:12:45.594Z,0.00
2023-02-02T04:13:45.623Z,0.00
2023-02-02T04:14:45.579Z,0.00
2023-02-02T04:15:45.602Z,0.00
2023-02-02T04:16:45.541Z,0.00
2023-02-02T04:17:45.536Z,0.00
2023-02-02T04:18:46.540Z,0.00
2023-02-02T04:19:45.509Z,0.00
2023-02-02T04:20:45.512Z,0.00
2023-02-02T04:21:46.476Z,0.00
2023-02-02T04:22:45.485Z,0.00
2023-02-02T04:23:45.485Z,0.00
2023-02-02T04:24:45.479Z,0.00
2023-02-02T04:25:46.476Z,0.00
2023-02-02T04:26:45.539Z,0.00
2023-02-02T04:27:46.420Z,0.00
2023-02-02T04:28:45.459Z,0.00
2023-02-02T04:29:46.393Z,0.00
2023-02-02T04:30:46.523Z,0.00
2023-02-02T04:31:45.483Z,0.00
2023-02-02T04:32:46.369Z,0.00
2023-02-02T04:33:46.382Z,0.00
2023-02-02T04:34:45.365Z,0.00
2023-02-02T04:35:45.375Z,0.00
2023-02-02T04:36:45.390Z,0.00
2023-02-02T04:37:45.317Z,0.00
2023-02-02T04:38:45.325Z,0.00
2023-02-02T04:39:46.324Z,0.00
2023-02-02T04:40:45.321Z,0.00
2023-02-02T04:41:45.282Z,0.00
2023-02-02T04:42:45.291Z,0.00
2023-02-02T04:43:45.300Z,0.00
2023-02-02T04:44:45.273Z,0.00
2023-02-02T04:45:46.303Z,0.00
2023-02-02T04:46:45.243Z,0.00
2023-02-02T04:47:46.228Z,0.00
2023-02-02T04:48:45.228Z,0.00
2023-02-02T04:49:45.197Z,0.00
2023-02-02T04:50:45.180Z,0.00
2023-02-02T04:51:45.197Z,0.00
2023-02-02T04:52:45.176Z,0.00
2023-02-02T04:53:46.150Z,0.00
2023-02-02T04:54:45.140Z,0.00
2023-02-02T04:55:45.167Z,0.00
2023-02-02T04:56:45.128Z,0.00
2023-02-02T04:57:45.111Z,0.00
2023-02-02T04:58:45.081Z,0.00
2023-02-02T04:59:45.075Z,0.00
2023-02-02T05:00:45.096Z,0.00
2023-02-02T05:01:45.080Z,0.00
2023-02-02T05:02:45.122Z,0.00
2023-02-02T05:03:45.051Z,0.00
2023-02-02T05:04:45.056Z,0.00
2023-02-02T05:05:45.028Z,0.00
2023-02-02T05:06:45.023Z,0.00
2023-02-02T05:07:45.007Z,0.00
2023-02-02T05:08:45.017Z,0.00
2023-02-02T05:09:44.966Z,0.00
2023-02-02T05:10:45.959Z,0.00
2023-02-02T05:11:44.972Z,0.00
2023-02-02T05:12:45.962Z,0.00
2023-02-02T05:13:45.956Z,0.00
2023-02-02T05:14:44.935Z,0.00
2023-02-02T05:15:44.903Z,0.00
2023-02-02T05:16:44.944Z,0.00
2023-02-02T05:17:45.884Z,0.00
2023-02-02T05:18:44.867Z,0.00
2023-02-02T05:19:45.898Z,0.00
2023-02-02T05:20:44.849Z,0.00
2023-02-02T05:21:46.261Z,0.00
2023-02-02T05:22:44.837Z,0.00
2023-02-02T05:23:44.856Z,0.00
2023-02-02T05:24:44.807Z,0.00
2023-02-02T05:25:44.821Z,0.00
2023-02-02T05:26:45.857Z,0.00
2023-02-02T05:27:44.795Z,0.00
2023-02-02T05:28:44.765Z,0.00
2023-02-02T05:29:44.769Z,0.00
2023-02-02T05:30:44.779Z,0.00
2023-02-02T05:31:44.814Z,0.00
2023-02-02T05:32:44.759Z,0.00
2023-02-02T05:33:44.729Z,0.00
2023-02-02T05:34:44.719Z,0.00
2023-02-02T05:35:44.738Z,0.00
2023-02-02T05:36:44.683Z,0.00
2023-02-02T05:37:44.721Z,0.00
2023-02-02T05:38:44.686Z,0.00
2023-02-02T05:39:44.712Z,0.00
2023-02-02T05:40:44.633Z,0.00
2023-02-02T05:41:44.657Z,0.00
2023-02-02T05:42:44.628Z,0.00
2023-02-02T05:43:45.664Z,0.00
2023-02-02T05:44:44.593Z,0.00
2023-02-02T05:45:44.638Z,0.00
2023-02-02T05:46:44.569Z,0.00
2023-02-02T05:47:44.603Z,0.00
2023-02-02T05:48:44.561Z,0.00
2023-02-02T05:49:44.578Z,0.00
2023-02-02T05:50:44.593Z,0.00
2023-02-02T05:51:44.540Z,0.00
2023-02-02T05:52:44.545Z,0.00
2023-02-02T05:53:44.494Z,0.00
2023-02-02T05:54:44.519Z,0.00
2023-02-02T05:55:45.508Z,0.00
2023-02-02T05:56:44.468Z,0.00
2023-02-02T05:57:44.478Z,0.00
2023-02-02T05:58:44.477Z,0.00
2023-02-02T05:59:45.470Z,0.00
2023-02-02T06:00:44.450Z,0.00
2023-02-02T06:01:44.440Z,0.00
2023-02-02T06:02:45.502Z,0.00
2023-02-02T06:03:44.462Z,0.00
2023-02-02T06:04:44.412Z,0.00
2023-02-02T06:05:44.410Z,0.00
2023-02-02T06:06:44.379Z,0.00
2023-02-02T06:07:44.384Z,0.00
2023-02-02T06:08:44.382Z,0.00
2023-02-02T06:09:44.398Z,0.00
2023-02-02T06:10:44.326Z,0.00
2023-02-02T06:11:44.333Z,0.00
2023-02-02T06:12:44.321Z,0.00
2023-02-02T06:13:45.953Z,0.00
2023-02-02T06:14:44.315Z,0.00
2023-02-02T06:15:44.335Z,0.00
2023-02-02T06:16:44.282Z,0.00
2023-02-02T06:17:44.286Z,0.00
2023-02-02T06:18:44.277Z,0.00
2023-02-02T06:19:44.250Z,0.00
2023-02-02T06:20:44.208Z,0.00
2023-02-02T06:21:44.224Z,0.00
2023-02-02T06:22:44.203Z,0.00
2023-02-02T06:23:44.272Z,0.00
2023-02-02T06:24:45.194Z,0.00
2023-02-02T06:25:44.185Z,0.00
2023-02-02T06:26:44.197Z,0.00
2023-02-02T06:27:44.155Z,0.00
2023-02-02T06:28:44.184Z,0.00
2023-02-02T06:29:44.144Z,4.00
2023-02-02T06:30:45.272Z,0.00
2023-02-02T06:31:44.193Z,0.00
2023-02-02T06:32:44.091Z,4.00
2023-02-02T06:33:44.079Z,4.00
2023-02-02T06:34:44.120Z,0.00
2023-02-02T06:35:44.065Z,4.00
2023-02-02T06:36:44.073Z,4.00
2023-02-02T06:37:45.031Z,4.00
2023-02-02T06:38:45.046Z,4.00
2023-02-02T06:39:45.062Z,4.00
2023-02-02T06:40:44.097Z,8.00
2023-02-02T06:41:44.001Z,8.00
2023-02-02T06:42:45.018Z,8.00
2023-02-02T06:43:43.998Z,8.00
2023-02-02T06:44:43.952Z,8.00
2023-02-02T06:45:43.984Z,8.00
2023-02-02T06:46:43.951Z,12.00
2023-02-02T06:47:43.968Z,12.00
2023-02-02T06:48:43.930Z,16.00
2023-02-02T06:49:43.898Z,16.00
2023-02-02T06:50:43.924Z,16.00
2023-02-02T06:51:43.882Z,20.00
2023-02-02T06:52:44.905Z,20.00
2023-02-02T06:53:43.882Z,20.00
2023-02-02T06:54:43.860Z,20.00
2023-02-02T06:55:43.862Z,20.00
2023-02-02T06:56:43.847Z,20.00
2023-02-02T06:57:43.832Z,20.00
2023-02-02T06:58:43.857Z,24.00
2023-02-02T06:59:43.823Z,32.00
2023-02-02T07:00:44.789Z,36.00
2023-02-02T07:01:43.843Z,36.00
2023-02-02T07:02:43.850Z,36.00
2023-02-02T07:03:43.780Z,36.00
2023-02-02T07:04:43.750Z,36.00
2023-02-02T07:05:43.751Z,36.00
2023-02-02T07:06:43.767Z,40.00
2023-02-02T07:07:44.714Z,44.00
2023-02-02T07:08:43.699Z,56.00
2023-02-02T07:09:43.717Z,60.00
2023-02-02T07:11:11.512Z,64.00
2023-02-02T07:11:45.253Z,68.00
2023-02-02T07:12:43.658Z,72.00
2023-02-02T07:13:43.661Z,76.00
2023-02-02T07:14:43.652Z,76.00
2023-02-02T07:15:43.702Z,80.00
2023-02-02T07:16:44.623Z,76.00
2023-02-02T07:17:43.627Z,60.00
2023-02-02T07:18:43.642Z,56.00
2023-02-02T07:19:43.586Z,52.00
2023-02-02T07:20:43.574Z,64.00
2023-02-02T07:21:43.555Z,72.00
2023-02-02T07:22:43.571Z,76.00
2023-02-02T07:23:43.582Z,84.00
2023-02-02T07:24:43.563Z,92.00
2023-02-02T07:25:43.966Z,100.00
2023-02-02T07:26:43.589Z,108.00
2023-02-02T07:27:43.533Z,116.00
2023-02-02T07:28:43.545Z,116.00
2023-02-02T07:29:43.497Z,120.00
2023-02-02T07:30:43.589Z,120.00
2023-02-02T07:31:43.587Z,124.00
2023-02-02T07:32:43.435Z,128.00
2023-02-02T07:33:43.449Z,128.00
2023-02-02T07:34:43.464Z,120.00
2023-02-02T07:35:43.419Z,116.00
2023-02-02T07:36:44.395Z,112.00
2023-02-02T07:37:43.385Z,112.00
2023-02-02T07:38:43.397Z,116.00
2023-02-02T07:39:44.380Z,112.00
2023-02-02T07:40:43.403Z,120.00
2023-02-02T07:41:43.355Z,124.00
2023-02-02T07:42:46.363Z,120.00
2023-02-02T07:43:43.346Z,112.00
2023-02-02T07:44:43.328Z,112.00
2023-02-02T07:45:43.338Z,128.00
2023-02-02T07:46:43.362Z,120.00
2023-02-02T07:47:43.295Z,116.00
2023-02-02T07:48:43.334Z,112.00
2023-02-02T07:49:43.314Z,108.00
2023-02-02T07:50:44.367Z,112.00
2023-02-02T07:51:47.558Z,108.00
2023-02-02T07:52:43.239Z,116.00
2023-02-02T07:53:44.247Z,116.00
2023-02-02T07:54:43.203Z,132.00
2023-02-02T07:55:43.223Z,140.00
2023-02-02T07:56:43.206Z,132.00
2023-02-02T07:57:43.206Z,124.00
2023-02-02T07:58:50.322Z,128.00
2023-02-02T07:59:43.151Z,144.00
2023-02-02T08:00:44.209Z,140.00
2023-02-02T08:01:43.177Z,140.00
2023-02-02T08:02:43.209Z,152.00
2023-02-02T08:03:43.160Z,160.00
2023-02-02T08:04:43.144Z,160.00
2023-02-02T08:05:43.094Z,156.00
2023-02-02T08:06:43.100Z,160.00
2023-02-02T08:07:43.148Z,160.00
2023-02-02T08:08:43.107Z,160.00
2023-02-02T08:09:44.077Z,156.00
2023-02-02T08:10:43.063Z,172.00
2023-02-02T08:11:44.100Z,160.00
2023-02-02T08:12:43.018Z,160.00
2023-02-02T08:13:43.012Z,164.00
2023-02-02T08:14:43.009Z,168.00
2023-02-02T08:15:42.983Z,180.00
2023-02-02T08:16:42.987Z,180.00
2023-02-02T08:17:43.976Z,168.00
2023-02-02T08:18:42.948Z,168.00
2023-02-02T08:19:42.978Z,176.00
2023-02-02T08:20:42.931Z,188.00
2023-02-02T08:21:42.957Z,204.00
2023-02-02T08:22:43.897Z,224.00
2023-02-02T08:23:43.895Z,220.00
2023-02-02T08:24:42.873Z,236.00
2023-02-02T08:25:43.896Z,260.00
2023-02-02T08:26:43.933Z,276.00
2023-02-02T08:27:43.863Z,288.00
2023-02-02T08:28:42.853Z,292.00
2023-02-02T08:29:42.832Z,300.00
2023-02-02T08:30:42.889Z,304.00
2023-02-02T08:31:42.891Z,316.00
2023-02-02T08:32:42.823Z,316.00
2023-02-02T08:33:42.816Z,320.00
2023-02-02T08:34:42.809Z,320.00
2023-02-02T08:35:42.764Z,320.00
2023-02-02T08:36:43.748Z,304.00
2023-02-02T08:37:43.733Z,300.00
2023-02-02T08:38:43.806Z,296.00
2023-02-02T08:39:42.739Z,280.00
2023-02-02T08:40:43.695Z,276.00
2023-02-02T08:41:42.709Z,268.00
2023-02-02T08:42:42.680Z,260.00
2023-02-02T08:43:42.706Z,256.00
2023-02-02T08:46:00.434Z,256.00
2023-02-02T08:46:01.092Z,256.00
2023-02-02T08:46:43.709Z,248.00
2023-02-02T08:47:42.613Z,248.00
2023-02-02T08:48:42.757Z,252.00
2023-02-02T08:49:42.616Z,248.00
2023-02-02T08:50:43.591Z,248.00
2023-02-02T08:51:42.619Z,256.00
2023-02-02T08:52:42.582Z,264.00
2023-02-02T08:53:42.722Z,264.00
2023-02-02T08:54:42.541Z,280.00
2023-02-02T08:55:42.635Z,276.00
2023-02-02T08:56:42.541Z,276.00
2023-02-02T08:57:42.523Z,280.00
2023-02-02T08:58:42.538Z,284.00
2023-02-02T08:59:42.604Z,276.00
2023-02-02T09:00:42.523Z,256.00
2023-02-02T09:01:42.507Z,240.00
2023-02-02T09:02:42.481Z,232.00
2023-02-02T09:03:42.454Z,248.00
2023-02-02T09:04:42.464Z,260.00
2023-02-02T09:05:43.600Z,276.00
2023-02-02T09:06:42.410Z,288.00
2023-02-02T09:07:42.425Z,284.00
2023-02-02T09:08:42.473Z,260.00
2023-02-02T09:09:42.383Z,260.00
2023-02-02T09:10:42.386Z,252.00
2023-02-02T09:11:43.376Z,240.00
2023-02-02T09:12:42.355Z,264.00
2023-02-02T09:13:42.371Z,260.00
2023-02-02T09:14:43.316Z,244.00
2023-02-02T09:15:43.321Z,240.00
2023-02-02T09:16:42.378Z,252.00
2023-02-02T09:17:42.330Z,284.00
2023-02-02T09:18:42.301Z,300.00
2023-02-02T09:19:42.276Z,300.00
2023-02-02T09:20:43.265Z,288.00
2023-02-02T09:21:42.252Z,284.00
2023-02-02T09:22:42.600Z,284.00
2023-02-02T09:23:42.235Z,288.00
2023-02-02T09:24:42.223Z,312.00
2023-02-02T09:25:43.223Z,332.00
2023-02-02T09:26:43.240Z,332.00
2023-02-02T09:27:42.171Z,344.00
2023-02-02T09:28:42.177Z,332.00
2023-02-02T09:29:42.186Z,328.00
2023-02-02T09:30:42.188Z,392.00
2023-02-02T09:31:42.221Z,420.00
2023-02-02T09:32:43.125Z,408.00
2023-02-02T09:33:42.115Z,404.00
2023-02-02T09:34:42.185Z,368.00
2023-02-02T09:35:42.137Z,364.00
2023-02-02T09:36:43.133Z,344.00
2023-02-02T09:37:42.086Z,344.00
2023-02-02T09:38:43.051Z,340.00
2023-02-02T09:39:42.066Z,344.00
2023-02-02T09:40:42.035Z,328.00
2023-02-02T09:41:42.078Z,312.00
2023-02-02T09:42:42.575Z,308.00
2023-02-02T09:43:42.034Z,304.00
2023-02-02T09:44:43.008Z,328.00
2023-02-02T09:45:41.993Z,348.00
2023-02-02T09:46:41.959Z,320.00
2023-02-02T09:47:42.997Z,292.00
2023-02-02T09:48:42.982Z,276.00
2023-02-02T09:49:42.939Z,284.00
2023-02-02T09:50:41.952Z,284.00
2023-02-02T09:51:41.917Z,252.00
2023-02-02T09:52:42.914Z,236.00
2023-02-02T09:53:54.797Z,232.00
2023-02-02T09:54:42.934Z,216.00
2023-02-02T09:55:41.861Z,228.00
2023-02-02T09:56:42.874Z,240.00
2023-02-02T09:57:41.867Z,224.00
2023-02-02T09:58:41.877Z,248.00
2023-02-02T09:59:41.898Z,248.00
2023-02-02T10:00:42.839Z,264.00
2023-02-02T10:01:41.837Z,256.00
2023-02-02T10:02:41.787Z,248.00
2023-02-02T10:03:42.901Z,264.00
2023-02-02T10:04:41.815Z,268.00
2023-02-02T10:05:41.808Z,264.00
2023-02-02T10:06:41.775Z,292.00
2023-02-02T10:07:41.737Z,284.00
2023-02-02T10:08:41.745Z,320.00
2023-02-02T10:09:41.753Z,328.00
2023-02-02T10:10:41.749Z,364.00
2023-02-02T10:11:42.746Z,360.00
2023-02-02T10:12:41.688Z,356.00
2023-02-02T10:13:42.679Z,360.00
2023-02-02T10:14:41.686Z,368.00
2023-02-02T10:15:41.751Z,364.00
2023-02-02T10:16:41.677Z,376.00
2023-02-02T10:17:42.710Z,380.00
2023-02-02T10:18:41.605Z,372.00
2023-02-02T10:19:41.596Z,388.00
2023-02-02T10:20:41.641Z,396.00
2023-02-02T10:21:41.590Z,368.00
2023-02-02T10:22:41.605Z,312.00
2023-02-02T10:23:41.614Z,300.00
2023-02-02T10:24:41.544Z,328.00
2023-02-02T10:25:42.535Z,328.00
2023-02-02T10:26:41.607Z,304.00
2023-02-02T10:27:41.547Z,312.00
2023-02-02T10:28:41.526Z,324.00
2023-02-02T10:29:48.918Z,356.00
2023-02-02T10:30:42.596Z,396.00
2023-02-02T10:31:42.632Z,404.00
2023-02-02T10:32:41.499Z,380.00
2023-02-02T10:33:41.484Z,384.00
2023-02-02T10:34:41.511Z,384.00
2023-02-02T10:35:41.469Z,368.00
2023-02-02T10:36:42.034Z,348.00
2023-02-02T10:37:41.415Z,320.00
2023-02-02T10:38:41.470Z,288.00
2023-02-02T10:39:41.436Z,260.00
2023-02-02T10:40:41.416Z,252.00
2023-02-02T10:41:41.456Z,232.00
2023-02-02T10:42:41.345Z,232.00
2023-02-02T10:43:41.346Z,220.00
2023-02-02T10:44:41.323Z,212.00
2023-02-02T10:45:41.329Z,224.00
2023-02-02T10:46:41.418Z,216.00
2023-02-02T10:47:41.346Z,216.00
2023-02-02T10:48:41.279Z,208.00
2023-02-02T10:49:41.287Z,212.00
2023-02-02T10:50:42.315Z,180.00
2023-02-02T10:51:41.344Z,144.00
2023-02-02T10:52:41.250Z,156.00
2023-02-02T10:53:41.279Z,164.00
2023-02-02T10:54:55.499Z,176.00
2023-02-02T10:55:42.236Z,160.00
2023-02-02T10:56:41.197Z,164.00
2023-02-02T10:57:41.218Z,184.00
2023-02-02T10:58:42.180Z,188.00
2023-02-02T10:59:41.226Z,156.00
2023-02-02T11:00:41.213Z,140.00
2023-02-02T11:01:41.239Z,156.00
2023-02-02T11:02:41.191Z,184.00
2023-02-02T11:03:41.123Z,188.00
2023-02-02T11:04:41.106Z,172.00
2023-02-02T11:05:42.157Z,168.00
2023-02-02T11:06:41.080Z,164.00
2023-02-02T11:07:41.102Z,176.00
2023-02-02T11:08:41.084Z,176.00
2023-02-02T11:09:41.065Z,168.00
2023-02-02T11:10:41.067Z,176.00
2023-02-02T11:11:41.112Z,200.00
2023-02-02T11:12:41.049Z,208.00
2023-02-02T11:13:41.050Z,220.00
2023-02-02T11:14:45.024Z,204.00
2023-02-02T11:15:42.001Z,224.00
2023-02-02T11:16:44.088Z,244.00
2023-02-02T11:17:40.983Z,260.00
2023-02-02T11:18:42.874Z,244.00
2023-02-02T11:19:40.968Z,248.00
2023-02-02T11:20:40.962Z,268.00
2023-02-02T11:21:40.941Z,276.00
2023-02-02T11:22:40.920Z,252.00
2023-02-02T11:23:40.909Z,296.00
2023-02-02T11:24:40.922Z,376.00
2023-02-02T11:25:41.891Z,408.00
2023-02-02T11:26:40.987Z,440.00
2023-02-02T11:27:40.848Z,444.00
2023-02-02T11:28:40.884Z,444.00
2023-02-02T11:29:40.877Z,444.00
2023-02-02T11:30:40.864Z,416.00
2023-02-02T11:31:40.867Z,396.00
2023-02-02T11:32:40.819Z,416.00
2023-02-02T11:33:40.878Z,336.00
2023-02-02T11:34:40.774Z,268.00
2023-02-02T11:35:40.802Z,208.00
2023-02-02T11:36:40.805Z,196.00
2023-02-02T11:37:40.773Z,252.00
2023-02-02T11:38:40.739Z,268.00
2023-02-02T11:39:40.724Z,268.00
2023-02-02T11:40:40.708Z,268.00
2023-02-02T11:41:40.732Z,244.00
2023-02-02T11:42:40.744Z,252.00
2023-02-02T11:43:40.710Z,248.00
2023-02-02T11:44:40.686Z,240.00
2023-02-02T11:45:40.663Z,224.00
2023-02-02T11:46:41.710Z,220.00
2023-02-02T11:47:40.641Z,212.00
2023-02-02T11:48:41.650Z,224.00
2023-02-02T11:49:40.652Z,248.00
2023-02-02T11:50:40.662Z,280.00
2023-02-02T11:51:40.613Z,292.00
2023-02-02T11:52:40.603Z,296.00
2023-02-02T11:53:40.592Z,272.00
2023-02-02T11:54:41.549Z,244.00
2023-02-02T11:55:40.607Z,224.00
2023-02-02T11:56:40.584Z,248.00
2023-02-02T11:57:40.518Z,268.00
2023-02-02T11:58:40.534Z,248.00
2023-02-02T11:59:40.521Z,276.00
2023-02-02T12:00:40.493Z,288.00
2023-02-02T12:01:40.592Z,296.00
2023-02-02T12:02:40.510Z,236.00
2023-02-02T12:03:41.531Z,204.00
2023-02-02T12:04:40.469Z,180.00
2023-02-02T12:05:40.459Z,184.00
2023-02-02T12:06:40.427Z,192.00
2023-02-02T12:07:41.455Z,188.00
2023-02-02T12:08:41.417Z,184.00
2023-02-02T12:09:40.412Z,244.00
2023-02-02T12:10:40.423Z,316.00
2023-02-02T12:11:40.449Z,444.00
2023-02-02T12:12:41.388Z,448.00
2023-02-02T12:13:40.372Z,412.00
2023-02-02T12:14:40.346Z,412.00
2023-02-02T12:15:40.353Z,420.00
2023-02-02T12:16:41.358Z,404.00
2023-02-02T12:17:40.308Z,352.00
2023-02-02T12:18:41.301Z,340.00
2023-02-02T12:19:40.316Z,496.00
2023-02-02T12:20:40.277Z,652.00
2023-02-02T12:21:40.285Z,628.00
2023-02-02T12:22:41.261Z,620.00
2023-02-02T12:23:40.237Z,488.00
2023-02-02T12:24:40.248Z,512.00
2023-02-02T12:25:40.210Z,620.00
2023-02-02T12:26:41.340Z,596.00
2023-02-02T12:27:40.221Z,768.00
2023-02-02T12:28:40.194Z,756.00
2023-02-02T12:29:40.181Z,636.00
2023-02-02T12:30:40.234Z,756.00
2023-02-02T12:31:40.209Z,568.00
2023-02-02T12:32:40.165Z,688.00
2023-02-02T12:33:40.162Z,600.00
2023-02-02T12:34:40.125Z,600.00
2023-02-02T12:35:40.114Z,556.00
2023-02-02T12:36:40.129Z,508.00
2023-02-02T12:37:41.102Z,504.00
2023-02-02T12:38:41.103Z,512.00
2023-02-02T12:39:40.100Z,656.00
2023-02-02T12:40:41.059Z,496.00
2023-02-02T12:41:40.073Z,428.00
2023-02-02T12:42:40.056Z,452.00
2023-02-02T12:43:41.041Z,416.00
2023-02-02T12:44:40.015Z,512.00
2023-02-02T12:45:40.065Z,488.00
2023-02-02T12:46:40.038Z,556.00
2023-02-02T12:47:39.993Z,464.00
2023-02-02T12:48:39.957Z,516.00
2023-02-02T12:49:40.971Z,460.00
2023-02-02T12:50:40.002Z,264.00
2023-02-02T12:51:40.942Z,268.00
2023-02-02T12:52:39.920Z,320.00
2023-02-02T12:53:39.926Z,384.00
2023-02-02T12:54:44.629Z,400.00
2023-02-02T12:55:40.890Z,420.00